logo
Rechercher aéroport 
image banner adimage banner adimage banner ad
image banner ad

SBPJ - Brigadeiro Lysias Rodrigues

Situé à Palmas, Brazil

ICAO - SBPJ, IATA - PMW

Données fournies par Airmate  

Information générale

Coordonnées: S10°17'24" W48°21'28"
Élévation : 774 feet MSL.
Variation magnétique : -21.516666667° East
Voir autres Aéroports à Tocatins

Données opérationnelles

Special qualification required
Heure actuelle UTC:
Heure actuelle locale:
Météo
METAR: SBPJ 201300Z 21003KT 9999 FEW030 SCT100 30/24 Q1016
TAF: TAF SBPJ 200800Z 2012/2112 13006KT 9999 FEW030 TX33/2019Z TN23/2109Z TEMPO 2013/2022 23010KT RMK PGX
Voir NOTAMs / SUP AIP / TFR affectant cet aéroport [VIEW]
Fréquences de communication: [VIEW]

Pistes:

Identifiant RWYQFULongueur (ft)Largeur (ft)SurfaceLDA (ft)
14124°8596919ASPH
32304°8596919ASPH

Coordonnées de l'aéroport

Adresse: Palmas Brazil

Vue satellite de SBPJ